createdAt,value
2022-10-22T00:01:08.848Z,64.45
2022-10-22T00:03:36.078Z,55.88
2022-10-22T00:06:03.587Z,63.20
2022-10-22T00:08:33.658Z,61.58
2022-10-22T00:11:12.488Z,55.20
2022-10-22T00:13:39.847Z,59.55
2022-10-22T00:16:09.378Z,57.83
2022-10-22T00:18:37.581Z,55.72
2022-10-22T00:21:06.497Z,54.55
2022-10-22T00:23:34.212Z,53.85
2022-10-22T00:26:01.447Z,52.72
2022-10-22T00:28:28.596Z,50.80
2022-10-22T00:30:57.938Z,62.45
2022-10-22T00:33:26.632Z,51.42
2022-10-22T00:35:54.450Z,50.78
2022-10-22T00:38:21.898Z,52.70
2022-10-22T00:40:49.078Z,52.05
2022-10-22T00:43:27.208Z,48.95
2022-10-22T00:45:56.460Z,46.33
2022-10-22T00:48:33.481Z,45.47
2022-10-22T00:51:06.477Z,48.70
2022-10-22T00:53:41.655Z,42.35
2022-10-22T00:56:10.146Z,42.33
2022-10-22T00:58:45.342Z,42.90
2022-10-22T01:01:21.633Z,39.97
2022-10-22T01:03:50.130Z,40.15
2022-10-22T01:06:32.065Z,40.38
2022-10-22T01:09:18.924Z,46.92
2022-10-22T01:12:09.801Z,37.28
2022-10-22T01:14:45.099Z,48.15
2022-10-22T01:17:39.139Z,42.00
2022-10-22T01:20:18.704Z,40.45
2022-10-22T01:23:31.904Z,43.53
2022-10-22T01:29:10.254Z,45.70
2022-10-22T01:32:00.786Z,47.78
2022-10-22T01:34:32.436Z,48.72
2022-10-22T01:37:01.939Z,49.83
2022-10-22T01:39:31.072Z,50.40
2022-10-22T01:42:04.011Z,46.90
2022-10-22T01:47:21.361Z,47.05
2022-10-22T01:50:17.720Z,47.88
2022-10-22T01:52:46.105Z,46.47
2022-10-22T01:55:48.908Z,47.30
2022-10-22T01:58:18.957Z,42.33
2022-10-22T02:01:03.275Z,39.22
2022-10-22T02:03:46.327Z,41.05
2022-10-22T02:06:21.283Z,44.65
2022-10-22T02:08:51.035Z,37.88
2022-10-22T02:11:18.298Z,38.42
2022-10-22T02:13:53.385Z,38.00
2022-10-22T02:16:36.503Z,39.38
2022-10-22T02:19:23.181Z,39.97
2022-10-22T02:21:50.543Z,37.65
2022-10-22T02:24:18.774Z,36.08
2022-10-22T02:27:24.292Z,35.20
2022-10-22T02:30:12.748Z,32.63
2022-10-22T02:33:12.975Z,34.86
2022-10-22T02:35:41.993Z,37.63
2022-10-22T02:38:11.209Z,42.50
2022-10-22T02:40:38.619Z,33.20
2022-10-22T02:43:08.761Z,31.67
2022-10-22T02:45:36.784Z,36.35
2022-10-22T02:48:04.580Z,37.33
2022-10-22T02:50:32.100Z,32.65
2022-10-22T02:52:59.307Z,34.38
2022-10-22T02:55:26.385Z,37.53
2022-10-22T02:57:53.467Z,32.22
2022-10-22T03:00:21.158Z,30.33
2022-10-22T03:02:48.347Z,36.92
2022-10-22T03:05:15.650Z,31.13
2022-10-22T03:07:44.929Z,34.10
2022-10-22T03:10:12.071Z,35.42
2022-10-22T03:12:39.184Z,33.72
2022-10-22T03:15:06.920Z,31.55
2022-10-22T03:17:34.113Z,34.95
2022-10-22T03:20:01.244Z,36.35
2022-10-22T03:22:32.636Z,36.20
2022-10-22T03:25:07.906Z,37.30
2022-10-22T03:27:38.485Z,34.58
2022-10-22T03:30:09.521Z,36.95
2022-10-22T03:32:39.598Z,37.00
2022-10-22T03:35:07.069Z,32.50
2022-10-22T03:37:35.911Z,35.50
2022-10-22T03:40:09.493Z,35.30
2022-10-22T03:42:36.546Z,38.53
2022-10-22T03:45:04.946Z,45.13
2022-10-22T03:47:32.073Z,48.63
2022-10-22T03:50:01.760Z,34.80
2022-10-22T03:52:29.053Z,42.03
2022-10-22T03:54:56.146Z,44.95
2022-10-22T03:57:25.856Z,43.35
2022-10-22T03:59:53.005Z,45.60
2022-10-22T04:02:20.105Z,48.50
2022-10-22T04:04:47.286Z,48.05
2022-10-22T04:07:16.989Z,45.72
2022-10-22T04:09:44.102Z,44.67
2022-10-22T04:12:11.274Z,41.95
2022-10-22T04:14:38.390Z,44.53
2022-10-22T04:17:05.680Z,47.92
2022-10-22T04:19:33.048Z,48.47
2022-10-22T04:22:00.760Z,50.33
2022-10-22T04:24:27.990Z,52.28
2022-10-22T04:26:56.120Z,45.42
2022-10-22T04:29:24.293Z,49.83
2022-10-22T04:31:51.617Z,59.60
2022-10-22T04:34:21.161Z,48.38
2022-10-22T04:36:48.310Z,47.92
2022-10-22T04:39:15.442Z,45.80
2022-10-22T04:42:01.118Z,52.13
2022-10-22T04:44:42.758Z,48.25
2022-10-22T04:47:09.905Z,48.38
2022-10-22T04:49:37.056Z,50.10
2022-10-22T04:52:06.956Z,53.28
2022-10-22T04:54:34.037Z,60.05
2022-10-22T04:57:01.313Z,52.58
2022-10-22T04:59:28.525Z,50.45
2022-10-22T05:01:56.021Z,50.65
2022-10-22T05:04:25.659Z,60.67
2022-10-22T05:06:55.188Z,69.03
2022-10-22T05:09:22.406Z,72.00
2022-10-22T05:11:52.585Z,64.05
2022-10-22T05:14:23.831Z,69.60
2022-10-22T05:16:52.182Z,73.03
2022-10-22T05:19:26.961Z,69.07
2022-10-22T05:21:57.732Z,69.00
2022-10-22T05:24:26.603Z,77.07
2022-10-22T05:26:56.269Z,71.72
2022-10-22T05:29:27.257Z,66.20
2022-10-22T05:31:54.743Z,66.30
2022-10-22T05:34:24.224Z,52.65
2022-10-22T05:36:51.333Z,38.50
2022-10-22T05:39:18.438Z,44.42
2022-10-22T05:41:45.482Z,42.85
2022-10-22T05:44:13.948Z,47.50
2022-10-22T05:46:41.167Z,39.20
2022-10-22T05:49:08.677Z,44.92
2022-10-22T05:51:37.455Z,41.70
2022-10-22T05:54:09.946Z,43.72
2022-10-22T05:56:37.567Z,43.85
2022-10-22T05:59:04.995Z,56.35
2022-10-22T06:01:35.546Z,45.22
2022-10-22T06:04:06.935Z,51.70
2022-10-22T06:06:54.417Z,50.15
2022-10-22T06:09:35.516Z,46.63
2022-10-22T06:12:03.295Z,49.05
2022-10-22T06:14:32.710Z,49.05
2022-10-22T06:17:00.727Z,53.65
2022-10-22T06:19:29.858Z,55.83
2022-10-22T06:21:57.007Z,55.25
2022-10-22T06:24:24.169Z,57.28
2022-10-22T06:26:52.707Z,69.60
2022-10-22T06:29:22.065Z,68.15
2022-10-22T06:31:49.704Z,66.50
2022-10-22T06:34:19.028Z,49.45
2022-10-22T06:36:47.688Z,41.78
2022-10-22T06:39:17.689Z,31.83
2022-10-22T06:41:45.109Z,33.63
2022-10-22T06:44:19.829Z,30.90
2022-10-22T06:46:47.843Z,31.17
2022-10-22T06:49:15.931Z,30.38
2022-10-22T06:51:43.514Z,41.45
2022-10-22T06:54:11.431Z,30.38
2022-10-22T06:56:38.564Z,29.50
2022-10-22T06:59:05.787Z,34.90
2022-10-22T07:01:35.783Z,29.02
2022-10-22T07:04:06.676Z,35.85
2022-10-22T07:06:33.861Z,32.08
2022-10-22T07:09:01.101Z,29.40
2022-10-22T07:11:41.587Z,28.33
2022-10-22T07:14:09.591Z,29.38
2022-10-22T07:16:37.874Z,33.63
2022-10-22T07:19:05.876Z,28.85
2022-10-22T07:21:33.163Z,29.92
2022-10-22T07:24:00.337Z,30.13
2022-10-22T07:26:31.021Z,30.05
2022-10-22T07:29:00.019Z,31.45
2022-10-22T07:31:28.247Z,33.85
2022-10-22T07:33:55.322Z,32.70
2022-10-22T07:36:24.999Z,32.53
2022-10-22T07:38:57.467Z,30.60
2022-10-22T07:41:25.672Z,29.38
2022-10-22T07:43:52.772Z,29.63
2022-10-22T07:46:23.106Z,26.98
2022-10-22T07:48:50.273Z,28.70
2022-10-22T07:51:18.052Z,26.70
2022-10-22T07:53:45.244Z,33.85
2022-10-22T07:56:12.448Z,26.10
2022-10-22T07:58:39.654Z,29.67
2022-10-22T08:01:06.982Z,29.52
2022-10-22T08:03:34.685Z,27.13
2022-10-22T08:06:02.588Z,26.55
2022-10-22T08:08:37.277Z,28.27
2022-10-22T08:11:06.852Z,31.35
2022-10-22T08:13:34.007Z,27.23
2022-10-22T08:16:02.149Z,31.23
2022-10-22T08:18:31.763Z,30.23
2022-10-22T08:20:59.210Z,30.27
2022-10-22T08:23:29.297Z,33.20
2022-10-22T08:25:57.905Z,29.40
2022-10-22T08:28:26.296Z,29.25
2022-10-22T08:30:53.365Z,30.20
2022-10-22T08:33:20.773Z,32.70
2022-10-22T08:35:53.980Z,28.50
2022-10-22T08:38:23.805Z,29.30
2022-10-22T08:40:59.532Z,32.50
2022-10-22T08:43:53.449Z,34.45
2022-10-22T08:46:41.344Z,34.30
2022-10-22T08:49:24.794Z,31.42
2022-10-22T08:51:52.388Z,37.30
2022-10-22T08:54:51.901Z,32.47
2022-10-22T08:57:37.222Z,32.42
2022-10-22T09:00:15.058Z,29.75
2022-10-22T09:03:09.883Z,29.08
2022-10-22T09:06:08.871Z,25.13
2022-10-22T09:08:38.705Z,24.15
2022-10-22T09:11:11.658Z,26.83
2022-10-22T09:13:43.638Z,27.70
2022-10-22T09:16:37.772Z,28.02
2022-10-22T09:19:31.092Z,29.30
2022-10-22T09:22:21.588Z,24.10
2022-10-22T09:25:16.766Z,28.20
2022-10-22T09:27:44.133Z,30.60
2022-10-22T09:30:21.786Z,27.70
2022-10-22T09:32:49.908Z,32.53
2022-10-22T09:35:26.369Z,26.10
2022-10-22T09:37:59.332Z,33.50
2022-10-22T09:40:26.455Z,27.95
2022-10-22T09:42:53.455Z,29.25
2022-10-22T09:45:29.529Z,32.10
2022-10-22T09:48:37.488Z,28.17
2022-10-22T09:54:25.305Z,29.15
2022-10-22T09:57:24.985Z,31.15
2022-10-22T09:59:55.024Z,34.17
2022-10-22T10:02:38.158Z,29.48
2022-10-22T10:05:07.949Z,29.08
2022-10-22T10:07:36.878Z,31.75
2022-10-22T10:10:18.237Z,33.10
2022-10-22T10:13:20.366Z,31.75
2022-10-22T10:16:26.338Z,34.20
2022-10-22T10:19:36.215Z,32.53
2022-10-22T10:22:22.834Z,29.60
2022-10-22T10:25:15.588Z,33.65
2022-10-22T10:28:04.337Z,34.53
2022-10-22T10:30:34.144Z,31.33
2022-10-22T10:34:00.107Z,32.25
2022-10-22T10:37:05.402Z,37.70
2022-10-22T10:40:00.854Z,35.10
2022-10-22T10:43:35.594Z,39.95
2022-10-22T10:46:29.514Z,30.02
2022-10-22T10:49:26.210Z,33.78
2022-10-22T10:52:29.499Z,32.95
2022-10-22T10:55:22.530Z,37.38
2022-10-22T10:58:04.590Z,37.72
2022-10-22T11:00:47.880Z,43.50
2022-10-22T11:04:07.741Z,45.22
2022-10-22T11:06:39.556Z,42.05
2022-10-22T11:09:38.859Z,40.85
2022-10-22T11:12:39.293Z,42.83
2022-10-22T11:15:35.792Z,37.15
2022-10-22T11:18:21.118Z,40.83
2022-10-22T11:21:10.031Z,38.45
2022-10-22T11:23:52.064Z,40.70
2022-10-22T11:26:48.993Z,39.83
2022-10-22T11:29:32.948Z,36.58
2022-10-22T11:32:05.396Z,36.67
2022-10-22T11:34:54.529Z,33.88
2022-10-22T11:37:24.267Z,37.42
2022-10-22T11:39:59.804Z,33.45
2022-10-22T11:42:38.589Z,36.80
2022-10-22T11:45:28.857Z,38.78
2022-10-22T11:48:27.167Z,39.53
2022-10-22T11:51:01.729Z,41.35
2022-10-22T11:53:48.991Z,37.95
2022-10-22T11:56:36.312Z,41.40
2022-10-22T11:59:04.150Z,39.35
2022-10-22T12:01:43.062Z,42.25
2022-10-22T12:04:21.974Z,37.17
2022-10-22T12:07:02.035Z,38.85
2022-10-22T12:09:34.470Z,39.70
2022-10-22T12:12:38.319Z,35.92
2022-10-22T12:15:27.699Z,35.00
2022-10-22T12:18:05.944Z,35.20
2022-10-22T12:20:35.642Z,30.33
2022-10-22T12:23:02.847Z,34.15
2022-10-22T12:25:36.624Z,35.58
2022-10-22T12:28:04.598Z,28.50
2022-10-22T12:30:37.261Z,33.15
2022-10-22T12:33:19.249Z,26.77
2022-10-22T12:35:49.034Z,25.85
2022-10-22T12:38:21.140Z,37.88
2022-10-22T12:40:50.905Z,23.60
2022-10-22T12:43:20.125Z,23.35
2022-10-22T12:45:50.549Z,21.15
2022-10-22T12:48:29.691Z,26.40
2022-10-22T12:51:02.399Z,22.92
2022-10-22T12:53:51.918Z,25.52
2022-10-22T12:56:28.439Z,26.00
2022-10-22T12:59:07.232Z,26.67
2022-10-22T13:01:41.607Z,28.50
2022-10-22T13:04:21.213Z,28.48
2022-10-22T13:07:06.882Z,24.52
2022-10-22T13:09:59.893Z,24.02
2022-10-22T13:12:37.183Z,22.95
2022-10-22T13:15:35.463Z,21.90
2022-10-22T13:18:22.522Z,20.58
2022-10-22T13:21:03.204Z,25.15
2022-10-22T13:23:36.290Z,23.10
2022-10-22T13:26:16.965Z,16.88
2022-10-22T13:28:56.343Z,22.80
2022-10-22T13:31:36.387Z,17.20
2022-10-22T13:34:11.727Z,18.83
2022-10-22T13:36:41.034Z,16.23
2022-10-22T13:39:24.562Z,16.48
2022-10-22T13:41:51.999Z,18.90
2022-10-22T13:44:20.030Z,14.95
2022-10-22T13:46:48.430Z,15.82
2022-10-22T13:49:23.446Z,14.00
2022-10-22T13:51:51.701Z,13.38
2022-10-22T13:54:22.894Z,10.80
2022-10-22T13:56:49.970Z,13.50
2022-10-22T13:59:23.865Z,10.75
2022-10-22T14:01:54.890Z,11.98
2022-10-22T14:04:22.073Z,13.73
2022-10-22T14:06:51.690Z,12.25
2022-10-22T14:09:21.209Z,13.63
2022-10-22T14:11:48.267Z,15.65
2022-10-22T14:14:18.865Z,12.90
2022-10-22T14:16:46.180Z,14.88
2022-10-22T14:19:17.933Z,14.50
2022-10-22T14:21:49.145Z,14.88
2022-10-22T14:24:16.179Z,14.27
2022-10-22T14:26:43.252Z,13.60
2022-10-22T14:29:11.372Z,14.43
2022-10-22T14:31:42.176Z,15.27
2022-10-22T14:34:15.137Z,17.42
2022-10-22T14:36:45.349Z,14.38
2022-10-22T14:39:13.813Z,13.55
2022-10-22T14:41:41.237Z,14.18
2022-10-22T14:44:14.536Z,14.27
2022-10-22T14:46:45.316Z,13.60
2022-10-22T14:49:12.843Z,17.88
2022-10-22T14:51:40.214Z,12.73
2022-10-22T14:54:07.373Z,13.65
2022-10-22T14:56:34.694Z,13.55
2022-10-22T14:59:01.735Z,15.23
2022-10-22T15:01:28.828Z,13.48
2022-10-22T15:03:55.882Z,17.98
2022-10-22T15:06:25.259Z,14.88
2022-10-22T15:08:52.384Z,14.77
2022-10-22T15:11:19.439Z,16.30
2022-10-22T15:13:46.536Z,14.45
2022-10-22T15:16:16.492Z,15.68
2022-10-22T15:18:45.813Z,17.30
2022-10-22T15:21:19.973Z,16.70
2022-10-22T15:23:48.255Z,14.80
2022-10-22T15:26:15.593Z,16.50
2022-10-22T15:28:43.313Z,15.48
2022-10-22T15:31:14.539Z,13.32
2022-10-22T15:33:45.725Z,16.52
2022-10-22T15:36:16.248Z,17.50
2022-10-22T15:38:43.349Z,20.25
2022-10-22T15:41:12.733Z,16.13
2022-10-22T15:43:39.846Z,16.83
2022-10-22T15:46:14.494Z,18.35
2022-10-22T15:48:43.049Z,15.65
2022-10-22T15:51:19.109Z,17.55
2022-10-22T15:53:58.824Z,16.35
2022-10-22T15:56:28.606Z,22.70
2022-10-22T15:58:59.898Z,21.33
2022-10-22T16:01:27.764Z,18.33
2022-10-22T16:04:03.532Z,22.17
2022-10-22T16:06:46.150Z,18.80
2022-10-22T16:09:20.235Z,17.35
2022-10-22T16:11:54.720Z,15.07
2022-10-22T16:14:23.681Z,19.88
2022-10-22T16:16:54.166Z,17.88
2022-10-22T16:19:23.595Z,17.10
2022-10-22T16:21:53.950Z,12.00
2022-10-22T16:24:22.360Z,12.50
2022-10-22T16:26:49.994Z,9.15
2022-10-22T16:29:17.232Z,9.80
2022-10-22T16:31:45.519Z,9.88
2022-10-22T16:34:13.506Z,10.23
2022-10-22T16:36:40.807Z,11.20
2022-10-22T16:39:10.797Z,10.70
2022-10-22T16:41:37.940Z,13.52
2022-10-22T16:44:08.041Z,10.63
2022-10-22T16:46:39.377Z,12.15
2022-10-22T16:49:07.353Z,12.27
2022-10-22T16:51:35.361Z,12.68
2022-10-22T16:54:04.564Z,15.23
2022-10-22T16:56:36.495Z,13.52
2022-10-22T16:59:03.713Z,14.40
2022-10-22T17:01:31.785Z,16.20
2022-10-22T17:04:02.252Z,15.63
2022-10-22T17:06:29.426Z,15.07
2022-10-22T17:08:56.603Z,12.68
2022-10-22T17:11:25.356Z,13.05
2022-10-22T17:13:56.134Z,17.73
2022-10-22T17:16:25.019Z,17.02
2022-10-22T17:18:54.955Z,16.70
2022-10-22T17:21:23.185Z,19.23
2022-10-22T17:23:56.623Z,20.80
2022-10-22T17:26:30.640Z,19.10
2022-10-22T17:28:58.173Z,16.95
2022-10-22T17:31:37.340Z,18.13
2022-10-22T17:34:15.336Z,23.40
2022-10-22T17:36:46.003Z,20.80
2022-10-22T17:39:31.350Z,24.20
2022-10-22T17:41:58.700Z,23.05
2022-10-22T17:44:26.238Z,22.60
2022-10-22T17:46:54.038Z,22.33
2022-10-22T17:49:21.487Z,22.95
2022-10-22T17:51:48.792Z,25.83
2022-10-22T17:54:16.065Z,24.40
2022-10-22T17:56:43.579Z,23.92
2022-10-22T17:59:14.807Z,27.05
2022-10-22T18:01:45.747Z,29.35
2022-10-22T18:04:19.082Z,27.33
2022-10-22T18:06:47.485Z,31.95
2022-10-22T18:09:18.762Z,26.77
2022-10-22T18:11:49.570Z,26.10
2022-10-22T18:14:22.626Z,31.02
2022-10-22T18:16:50.658Z,31.70
2022-10-22T18:19:22.236Z,34.80
2022-10-22T18:21:52.253Z,32.97
2022-10-22T18:24:24.239Z,33.53
2022-10-22T18:26:54.408Z,32.75
2022-10-22T18:29:21.516Z,37.00
2022-10-22T18:31:49.171Z,34.42
2022-10-22T18:34:19.070Z,35.20
2022-10-22T18:36:50.028Z,36.17
2022-10-22T18:39:19.545Z,37.25
2022-10-22T18:41:51.201Z,41.88
2022-10-22T18:44:24.931Z,34.95
2022-10-22T18:46:52.137Z,39.53
2022-10-22T18:49:20.086Z,39.70
2022-10-22T18:52:05.063Z,42.50
2022-10-22T18:54:32.237Z,40.90
2022-10-22T18:57:02.837Z,36.85
2022-10-22T18:59:30.893Z,36.88
2022-10-22T19:01:59.764Z,35.83
2022-10-22T19:04:33.811Z,37.13
2022-10-22T19:07:03.663Z,36.90
2022-10-22T19:09:31.014Z,38.97
2022-10-22T19:12:00.592Z,33.75
2022-10-22T19:14:28.869Z,32.30
2022-10-22T19:16:58.375Z,35.65
2022-10-22T19:19:25.701Z,36.13
2022-10-22T19:21:52.982Z,38.10
2022-10-22T19:24:20.921Z,31.20
2022-10-22T19:26:49.856Z,41.45
2022-10-22T19:29:20.433Z,34.42
2022-10-22T19:31:51.157Z,34.65
2022-10-22T19:34:19.918Z,29.25
2022-10-22T19:36:47.559Z,31.73
2022-10-22T19:39:20.637Z,31.05
2022-10-22T19:41:47.960Z,29.60
2022-10-22T19:44:15.408Z,29.58
2022-10-22T19:46:42.495Z,36.22
2022-10-22T19:49:14.730Z,34.90
2022-10-22T19:51:44.989Z,36.83
2022-10-22T19:54:24.041Z,35.55
2022-10-22T19:56:51.234Z,27.55
2022-10-22T19:59:22.894Z,42.17
2022-10-22T20:01:57.222Z,32.08
2022-10-22T20:04:26.811Z,28.38
2022-10-22T20:06:55.915Z,31.08
2022-10-22T20:09:23.874Z,31.30
2022-10-22T20:11:51.400Z,32.53
2022-10-22T20:14:18.506Z,33.00
2022-10-22T20:16:46.391Z,29.77
2022-10-22T20:19:16.361Z,30.35
2022-10-22T20:21:46.316Z,31.05
2022-10-22T20:24:13.864Z,29.52
2022-10-22T20:26:45.739Z,29.58
2022-10-22T20:29:19.202Z,29.55
2022-10-22T20:31:47.475Z,26.67
2022-10-22T20:34:15.006Z,26.58
2022-10-22T20:36:42.335Z,35.22
2022-10-22T20:39:15.218Z,31.73
2022-10-22T20:41:45.160Z,30.52
2022-10-22T20:44:17.320Z,29.90
2022-10-22T20:49:17.853Z,30.52
2022-10-22T20:51:47.659Z,29.23
2022-10-22T20:54:15.966Z,33.55
2022-10-22T20:56:43.877Z,29.95
2022-10-22T20:59:12.692Z,31.42
2022-10-22T21:01:52.878Z,31.45
2022-10-22T21:04:23.198Z,31.40
2022-10-22T21:06:52.222Z,33.28
2022-10-22T21:09:20.063Z,28.25
2022-10-22T21:11:47.967Z,26.33
2022-10-22T21:14:20.006Z,26.17
2022-10-22T21:16:50.097Z,27.40
2022-10-22T21:19:22.621Z,33.42
2022-10-22T21:21:54.938Z,32.28
2022-10-22T21:24:28.890Z,30.17
2022-10-22T21:26:56.099Z,24.85
2022-10-22T21:29:23.429Z,34.13
2022-10-22T21:31:50.710Z,31.30
2022-10-22T21:34:17.855Z,33.03
2022-10-22T21:39:19.371Z,26.13
2022-10-22T21:41:46.562Z,24.02
2022-10-22T21:44:13.698Z,25.00
2022-10-22T21:46:41.035Z,27.42
2022-10-22T21:49:08.155Z,32.30
2022-10-22T21:51:38.149Z,31.75
2022-10-22T21:54:05.438Z,29.67
2022-10-22T21:56:35.055Z,29.67
2022-10-22T21:59:04.293Z,28.73
2022-10-22T22:01:31.868Z,27.52
2022-10-22T22:03:59.677Z,29.23
2022-10-22T22:06:33.353Z,27.38
2022-10-22T22:09:02.398Z,30.60
2022-10-22T22:11:30.819Z,27.75
2022-10-22T22:13:59.028Z,29.20
2022-10-22T22:16:29.671Z,32.95
2022-10-22T22:19:11.894Z,28.58
2022-10-22T22:21:40.778Z,23.85
2022-10-22T22:24:10.972Z,28.35
2022-10-22T22:26:39.410Z,28.90
2022-10-22T22:29:06.647Z,29.00
2022-10-22T22:31:35.356Z,29.50
2022-10-22T22:34:08.877Z,24.45
2022-10-22T22:36:39.703Z,30.88
2022-10-22T22:39:10.549Z,26.85
2022-10-22T22:41:37.737Z,25.98
2022-10-22T22:44:06.054Z,27.48
2022-10-22T22:46:33.527Z,28.48
2022-10-22T22:49:00.891Z,24.20
2022-10-22T22:51:28.000Z,29.90
2022-10-22T22:53:57.975Z,25.02
2022-10-22T22:56:28.578Z,28.00
2022-10-22T22:58:56.304Z,28.20
2022-10-22T23:01:29.194Z,26.98
2022-10-22T23:04:00.124Z,27.73
2022-10-22T23:06:32.154Z,29.48
2022-10-22T23:09:00.037Z,28.52
2022-10-22T23:11:28.461Z,30.83
2022-10-22T23:14:03.336Z,34.28
2022-10-22T23:16:34.500Z,26.35
2022-10-22T23:19:02.665Z,28.65
2022-10-22T23:21:34.115Z,35.05
2022-10-22T23:24:09.392Z,24.45
2022-10-22T23:26:42.454Z,34.03
2022-10-22T23:29:23.055Z,28.15
2022-10-22T23:31:51.444Z,29.50
2022-10-22T23:34:23.142Z,21.95
2022-10-22T23:36:51.379Z,27.05
2022-10-22T23:39:22.986Z,23.58
2022-10-22T23:41:50.868Z,27.95
2022-10-22T23:44:18.086Z,27.63
2022-10-22T23:46:45.350Z,28.00
2022-10-22T23:49:12.844Z,26.20
2022-10-22T23:51:41.180Z,23.52
2022-10-22T23:54:16.349Z,29.50
2022-10-22T23:56:43.705Z,24.77
2022-10-22T23:59:11.178Z,27.60
